Date,TemperatureHighF,TemperatureAvgF,TemperatureLowF,DewpointHighF,DewpointAvgF,DewpointLowF,HumidityHigh,HumidityAvg,HumidityLow,PressureMaxIn,PressureMinIn,WindSpeedMaxMPH,WindSpeedAvgMPH,GustSpeedMaxMPH,PrecipitationSumIn
2013-9-1,88.0,82.6,70.3,77.0,74.6,69.5,98,77,63,29.80,29.70,7,0,7,0.00
2013-9-2,89.4,84.6,70.8,76.9,74.7,64.0,99,73,59,29.77,29.66,9,0,10,0.00
2013-9-3,87.0,81.1,69.5,73.4,66.2,56.6,91,61,47,29.95,29.69,16,3,16,0.00
2013-9-4,81.0,77.1,57.0,60.8,59.0,40.2,98,55,44,30.06,29.94,8,3,10,0.00
2013-9-5,80.6,77.6,60.0,66.0,59.8,55.9,98,56,46,30.10,29.98,15,2,15,0.00
2013-9-6,77.6,72.2,51.6,57.5,53.1,47.5,95,52,41,30.24,30.10,7,0,10,0.00
2013-9-7,80.4,73.7,52.8,63.9,57.0,32.0,98,57,45,30.11,29.89,7,0,8,0.00
2013-9-8,84.8,78.8,62.7,70.5,65.6,61.7,97,65,58,30.02,29.84,12,1,12,0.00
2013-9-9,80.5,74.7,62.5,67.2,64.0,50.2,89,70,64,30.17,30.02,9,0,11,0.00
2013-9-10,91.3,77.9,66.1,76.9,71.0,64.6,97,81,60,30.14,30.02,10,1,10,0.00
2013-9-11,92.9,80.8,71.6,78.1,73.7,70.1,97,80,58,30.11,29.95,9,0,9,0.00
2013-9-12,92.0,77.7,69.1,76.0,70.4,64.8,99,80,51,29.96,29.69,13,1,17,0.00
2013-9-13,76.3,66.8,55.9,66.0,58.0,48.1,94,75,45,29.93,29.68,19,3,20,0.00
2013-9-14,66.5,56.5,48.0,49.2,46.9,44.7,92,72,50,30.15,29.93,12,2,14,0.00
2013-9-15,76.5,59.9,43.8,59.0,52.2,42.7,98,78,51,30.21,30.04,9,0,9,0.00
2013-9-16,70.7,62.5,55.2,60.6,57.7,52.9,98,85,64,30.22,30.00,12,1,12,0.20
2013-9-17,68.2,56.0,45.1,53.4,46.3,41.5,94,72,45,30.41,30.22,8,0,8,0.00
2013-9-18,70.3,55.2,40.0,53.3,47.3,38.7,97,77,52,30.31,30.15,8,0,8,0.00
2013-9-19,77.1,61.2,46.7,62.3,54.4,45.3,97,80,56,30.16,30.03,8,0,9,0.00
2013-9-20,80.3,66.5,53.1,66.5,60.2,52.2,99,82,58,30.05,29.90,10,1,12,0.00
2013-9-21,68.0,64.4,60.1,65.2,62.2,59.5,99,93,86,29.91,29.64,17,2,19,0.52
2013-9-22,71.1,60.8,54.1,59.7,54.4,49.9,100,82,54,29.94,29.70,15,2,15,0.01
2013-9-23,64.9,55.9,45.9,50.4,46.4,43.2,92,71,54,30.08,29.93,14,2,14,0.00
2013-9-24,71.5,53.8,39.2,52.2,46.1,38.0,98,78,44,30.11,29.93,8,0,11,0.00
2013-9-25,74.3,51.5,42.4,54.1,45.7,41.3,100,84,43,29.97,29.87,6,0,7,0.00
2013-9-26,75.3,58.2,45.2,58.3,51.1,44.1,100,80,46,30.05,29.91,6,0,7,0.00
2013-9-27,71.8,58.6,48.0,60.8,54.1,46.6,98,86,64,30.20,30.05,6,0,6,0.00
2013-9-28,68.0,58.7,50.3,59.1,54.0,48.1,98,86,62,30.29,30.19,8,0,8,0.00
2013-9-29,73.2,56.6,45.2,58.9,50.6,44.2,99,83,48,30.19,30.03,7,0,10,0.00
2013-9-30,76.0,60.1,46.3,59.7,53.2,45.5,99,80,51,30.07,29.95,7,0,7,0.00